createdAt,value
2022-09-28T06:52:21.974Z,10.08
2022-09-28T06:53:21.966Z,10.16
2022-09-28T06:54:21.944Z,10.08
2022-09-28T06:55:21.914Z,10.21
2022-09-28T06:56:21.947Z,10.18
2022-09-28T06:57:21.861Z,10.21
2022-09-28T06:58:21.852Z,10.02
2022-09-28T06:59:21.859Z,10.17
2022-09-28T07:00:21.829Z,10.18
2022-09-28T07:01:21.878Z,10.23
2022-09-28T07:02:21.856Z,10.26
2022-09-28T07:03:21.803Z,10.27
2022-09-28T07:04:21.814Z,10.24
2022-09-28T07:05:21.792Z,10.26
2022-09-28T07:06:21.768Z,10.23
2022-09-28T07:07:21.768Z,10.26
2022-09-28T07:08:21.759Z,10.30
2022-09-28T07:09:32.434Z,10.21
2022-09-28T07:10:22.764Z,10.18
2022-09-28T07:11:21.716Z,10.23
2022-09-28T07:12:21.708Z,10.23
2022-09-28T07:13:46.832Z,10.35
2022-09-28T07:14:43.314Z,10.28
2022-09-28T07:15:22.673Z,10.28
2022-09-28T07:16:26.683Z,10.27
2022-09-28T07:17:22.655Z,10.24
2022-09-28T07:18:21.708Z,10.17
2022-09-28T07:19:21.632Z,10.12
2022-09-28T07:20:21.628Z,10.16
2022-09-28T07:21:29.318Z,10.20
2022-09-28T07:22:37.522Z,10.17
2022-09-28T07:23:22.590Z,10.14
2022-09-28T07:24:21.596Z,10.14
2022-09-28T07:25:21.566Z,10.10
2022-09-28T07:26:24.020Z,10.12
2022-09-28T07:27:25.490Z,10.21
2022-09-28T07:28:22.558Z,10.26
2022-09-28T07:29:21.529Z,10.23
2022-09-28T07:30:21.576Z,10.30
2022-09-28T07:31:21.578Z,10.21
2022-09-28T07:32:21.555Z,10.30
2022-09-28T07:33:21.488Z,10.30
2022-09-28T07:34:21.469Z,10.30
2022-09-28T07:35:21.456Z,10.26
2022-09-28T07:36:21.467Z,10.30
2022-09-28T07:37:21.439Z,10.30
2022-09-28T07:38:21.457Z,10.28
2022-09-28T07:39:21.421Z,10.38
2022-09-28T07:40:21.495Z,10.35
2022-09-28T07:41:21.417Z,10.31
2022-09-28T07:42:21.383Z,10.39
2022-09-28T07:43:21.388Z,10.41
2022-09-28T07:44:21.363Z,10.64
2022-09-28T07:45:21.361Z,10.54
2022-09-28T07:46:21.436Z,10.73
2022-09-28T07:47:21.340Z,10.73
2022-09-28T07:48:21.328Z,10.79
2022-09-28T07:49:21.317Z,10.82
2022-09-28T07:50:21.327Z,10.76
2022-09-28T07:51:21.340Z,10.91
2022-09-28T07:52:21.284Z,10.85
2022-09-28T07:53:21.277Z,10.87
2022-09-28T07:54:21.262Z,10.90
2022-09-28T07:55:21.244Z,10.85
2022-09-28T07:56:21.260Z,10.91
2022-09-28T07:57:21.230Z,10.98
2022-09-28T07:58:21.230Z,10.94
2022-09-28T07:59:21.213Z,11.00
2022-09-28T08:00:21.199Z,11.00
2022-09-28T08:01:21.267Z,11.13
2022-09-28T08:02:21.253Z,11.01
2022-09-28T08:03:21.179Z,11.04
2022-09-28T08:04:21.156Z,11.08
2022-09-28T08:05:21.174Z,11.05
2022-09-28T08:06:21.142Z,11.11
2022-09-28T08:07:23.852Z,11.04
2022-09-28T08:08:21.120Z,11.11
2022-09-28T08:09:21.109Z,11.18
2022-09-28T08:10:21.114Z,11.25
2022-09-28T08:11:21.095Z,11.37
2022-09-28T08:12:21.101Z,11.51
2022-09-28T08:13:23.476Z,11.55
2022-09-28T08:14:22.065Z,11.59
2022-09-28T08:15:21.045Z,11.76
2022-09-28T08:16:21.253Z,11.70
2022-09-28T08:17:21.020Z,11.73
2022-09-28T08:18:21.015Z,11.84
2022-09-28T08:19:20.993Z,11.89
2022-09-28T08:20:21.010Z,11.89
2022-09-28T08:21:20.978Z,11.93
2022-09-28T08:22:20.968Z,12.03
2022-09-28T08:23:20.951Z,12.10
2022-09-28T08:24:20.950Z,12.10
2022-09-28T08:25:20.957Z,12.18
2022-09-28T08:26:20.942Z,12.17
2022-09-28T08:27:20.907Z,12.33
2022-09-28T08:28:20.924Z,12.43
2022-09-28T08:29:20.898Z,12.50
2022-09-28T08:30:20.889Z,12.55
2022-09-28T08:31:21.001Z,12.62
2022-09-28T08:32:20.871Z,12.71
2022-09-28T08:33:20.853Z,12.65
2022-09-28T08:34:20.838Z,12.69
2022-09-28T08:35:20.824Z,12.66
2022-09-28T08:36:20.826Z,12.80
2022-09-28T08:37:20.801Z,12.84
2022-09-28T08:38:20.816Z,12.76
2022-09-28T08:39:20.787Z,12.69
2022-09-28T08:40:20.809Z,12.65
2022-09-28T08:41:20.781Z,12.59
2022-09-28T08:42:20.758Z,12.59
2022-09-28T08:43:20.755Z,12.68
2022-09-28T08:44:20.772Z,12.65
2022-09-28T08:45:22.512Z,12.73
2022-09-28T08:46:23.815Z,12.81
2022-09-28T08:47:21.701Z,12.80
2022-09-28T08:48:20.703Z,12.77
2022-09-28T08:49:25.518Z,12.86
2022-09-28T08:50:21.700Z,12.95
2022-09-28T08:51:20.671Z,12.84
2022-09-28T08:52:20.645Z,12.98
2022-09-28T08:53:20.632Z,13.02
2022-09-28T08:54:20.639Z,13.13
2022-09-28T08:55:20.637Z,13.09
2022-09-28T08:56:20.642Z,13.11
2022-09-28T08:57:20.593Z,13.11
2022-09-28T08:58:20.607Z,13.05
2022-09-28T08:59:20.579Z,13.05
2022-09-28T09:00:20.640Z,12.98
2022-09-28T09:01:20.635Z,12.91
2022-09-28T09:02:20.657Z,12.79
2022-09-28T09:03:20.823Z,12.77
2022-09-28T09:04:20.548Z,12.71
2022-09-28T09:05:20.516Z,12.72
2022-09-28T09:06:20.512Z,12.73
2022-09-28T09:07:20.496Z,12.66
2022-09-28T09:08:20.484Z,12.71
2022-09-28T09:09:20.499Z,12.68
2022-09-28T09:10:20.512Z,12.62
2022-09-28T09:11:20.466Z,12.54
2022-09-28T09:12:20.449Z,12.62
2022-09-28T09:13:20.425Z,12.63
2022-09-28T09:14:20.421Z,12.53
2022-09-28T09:15:20.426Z,12.58
2022-09-28T09:16:20.463Z,12.53
2022-09-28T09:17:20.419Z,12.61
2022-09-28T09:18:20.379Z,12.62
2022-09-28T09:19:20.379Z,12.63
2022-09-28T09:20:20.415Z,12.65
2022-09-28T09:21:20.348Z,12.59
2022-09-28T09:22:20.354Z,12.62
2022-09-28T09:23:20.340Z,12.51
2022-09-28T09:24:20.326Z,12.61
2022-09-28T09:25:20.315Z,12.66
2022-09-28T09:26:24.872Z,12.77
2022-09-28T09:27:21.283Z,12.86
2022-09-28T09:28:20.273Z,12.79
2022-09-28T09:29:20.267Z,12.76
2022-09-28T09:30:20.671Z,12.77
2022-09-28T09:31:22.724Z,12.87
2022-09-28T09:32:20.246Z,12.83
2022-09-28T09:33:20.233Z,12.76
2022-09-28T09:34:20.208Z,12.77
2022-09-28T09:35:22.505Z,12.84
2022-09-28T09:36:20.186Z,12.81
2022-09-28T09:37:20.180Z,12.87
2022-09-28T09:38:20.160Z,12.91
2022-09-28T09:39:20.170Z,12.98
2022-09-28T09:40:20.242Z,12.99
2022-09-28T09:41:20.135Z,12.99
2022-09-28T09:42:20.119Z,12.95
2022-09-28T09:43:20.118Z,12.93
2022-09-28T09:44:20.121Z,12.76
2022-09-28T09:45:20.088Z,12.81
2022-09-28T09:46:20.161Z,12.83
2022-09-28T09:47:20.077Z,12.73
2022-09-28T09:48:20.072Z,12.88
2022-09-28T09:49:20.044Z,12.63
2022-09-28T09:50:20.046Z,12.61
2022-09-28T09:51:20.035Z,12.63
2022-09-28T09:52:20.047Z,12.58
2022-09-28T09:53:20.025Z,12.51
2022-09-28T09:54:19.991Z,12.53
2022-09-28T09:55:20.004Z,12.46
2022-09-28T09:56:19.978Z,12.41
2022-09-28T09:57:19.970Z,12.30
2022-09-28T09:58:19.958Z,12.35
2022-09-28T09:59:20.002Z,12.46
2022-09-28T10:00:19.928Z,12.48
2022-09-28T10:01:19.995Z,12.41
2022-09-28T10:02:19.970Z,12.44
2022-09-28T10:03:19.905Z,12.35
2022-09-28T10:04:19.918Z,12.35
2022-09-28T10:05:19.911Z,12.38
2022-09-28T10:06:19.867Z,12.33
2022-09-28T10:07:19.882Z,12.22
2022-09-28T10:08:19.852Z,12.18
2022-09-28T10:09:27.535Z,12.18
2022-09-28T10:10:19.874Z,12.17
2022-09-28T10:11:19.881Z,12.32
2022-09-28T10:12:19.864Z,12.46
2022-09-28T10:13:19.815Z,12.61
2022-09-28T10:14:19.808Z,12.68
2022-09-28T10:15:19.832Z,12.62
2022-09-28T10:16:19.893Z,12.61
2022-09-28T10:17:19.832Z,12.58
2022-09-28T10:18:19.883Z,12.68
2022-09-28T10:19:19.736Z,12.81
2022-09-28T10:20:19.757Z,13.05
2022-09-28T10:21:19.713Z,13.30
2022-09-28T10:22:19.697Z,13.43
2022-09-28T10:23:19.712Z,13.46
2022-09-28T10:24:19.675Z,13.46
2022-09-28T10:25:19.694Z,13.64
2022-09-28T10:26:24.179Z,13.90
2022-09-28T10:27:20.649Z,14.04
2022-09-28T10:28:19.655Z,14.01
2022-09-28T10:29:19.748Z,14.19
2022-09-28T10:30:19.619Z,14.21
2022-09-28T10:31:19.619Z,14.21
2022-09-28T10:32:19.594Z,14.18
2022-09-28T10:33:19.580Z,14.40
2022-09-28T10:34:19.768Z,14.40
2022-09-28T10:35:19.591Z,14.31
2022-09-28T10:36:19.621Z,14.28
2022-09-28T10:37:19.544Z,14.38
2022-09-28T10:38:19.535Z,14.46
2022-09-28T10:39:19.525Z,14.48
2022-09-28T10:40:19.535Z,14.46
2022-09-28T10:41:19.520Z,14.28
2022-09-28T10:42:19.481Z,14.19
2022-09-28T10:43:19.484Z,14.05
2022-09-28T10:44:19.640Z,14.09
2022-09-28T10:45:19.480Z,14.26
2022-09-28T10:46:19.533Z,14.33
2022-09-28T10:47:19.450Z,14.26
2022-09-28T10:48:19.423Z,14.11
2022-09-28T10:49:19.417Z,14.08
2022-09-28T10:50:19.419Z,14.01
2022-09-28T10:51:19.403Z,13.98
2022-09-28T10:52:19.411Z,13.96
2022-09-28T10:53:19.378Z,13.97
2022-09-28T10:54:19.583Z,13.94
2022-09-28T10:55:19.353Z,13.93
2022-09-28T10:56:19.359Z,13.91
2022-09-28T10:57:19.330Z,13.85
2022-09-28T10:58:19.351Z,13.86
2022-09-28T10:59:19.314Z,13.75
2022-09-28T11:00:19.306Z,13.67
2022-09-28T11:01:19.333Z,13.73
2022-09-28T11:02:19.340Z,13.78
2022-09-28T11:03:19.272Z,13.58
2022-09-28T11:04:19.346Z,13.49
2022-09-28T11:05:19.251Z,13.47
2022-09-28T11:06:19.233Z,13.49
2022-09-28T11:07:19.219Z,13.42
2022-09-28T11:08:19.244Z,13.32
2022-09-28T11:09:19.360Z,13.35
2022-09-28T11:10:19.192Z,13.21
2022-09-28T11:11:19.195Z,13.21
2022-09-28T11:12:19.164Z,13.21
2022-09-28T11:13:19.162Z,13.17
2022-09-28T11:14:19.145Z,13.26
2022-09-28T11:15:19.153Z,13.21
2022-09-28T11:16:19.246Z,13.24
2022-09-28T11:17:19.131Z,13.20
2022-09-28T11:18:19.104Z,13.23
2022-09-28T11:19:19.213Z,13.08
2022-09-28T11:20:22.413Z,13.09
2022-09-28T11:21:20.070Z,13.19
2022-09-28T11:22:21.705Z,13.13
2022-09-28T11:23:19.049Z,13.09
2022-09-28T11:24:19.728Z,13.14
2022-09-28T11:25:19.036Z,13.13
2022-09-28T11:26:19.185Z,13.09
2022-09-28T11:27:19.013Z,12.96
2022-09-28T11:28:19.002Z,12.93
2022-09-28T11:29:19.097Z,12.72
2022-09-28T11:30:18.982Z,12.73
2022-09-28T11:31:19.072Z,12.81
2022-09-28T11:32:18.956Z,12.90
2022-09-28T11:33:18.951Z,12.95
2022-09-28T11:34:19.101Z,12.99
2022-09-28T11:35:18.919Z,12.96
2022-09-28T11:36:18.916Z,12.88
2022-09-28T11:37:18.909Z,12.88
2022-09-28T11:38:18.902Z,12.77
2022-09-28T11:39:18.939Z,12.84
2022-09-28T11:40:19.008Z,12.91
2022-09-28T11:41:18.858Z,12.90
2022-09-28T11:42:18.858Z,12.77
2022-09-28T11:43:18.836Z,12.72
2022-09-28T11:44:19.006Z,12.73
2022-09-28T11:45:18.820Z,12.90
2022-09-28T11:46:18.875Z,12.86
2022-09-28T11:47:18.797Z,12.83
2022-09-28T11:48:18.798Z,12.86
2022-09-28T11:49:18.772Z,12.80
2022-09-28T11:50:23.541Z,12.90
2022-09-28T11:51:19.749Z,13.08
2022-09-28T11:52:18.752Z,13.13
2022-09-28T11:53:18.765Z,13.08
2022-09-28T11:54:18.769Z,12.98
2022-09-28T11:55:18.714Z,12.93
2022-09-28T11:56:18.731Z,12.81
2022-09-28T11:57:18.701Z,12.77
2022-09-28T11:58:18.687Z,12.80
2022-09-28T11:59:18.677Z,12.84
2022-09-28T12:00:18.667Z,12.81
2022-09-28T12:01:19.126Z,12.81
2022-09-28T12:02:18.770Z,12.86
2022-09-28T12:03:18.801Z,12.87
2022-09-28T12:04:18.700Z,12.83
2022-09-28T12:05:21.037Z,12.96
2022-09-28T12:06:18.593Z,12.84
2022-09-28T12:07:18.586Z,12.86
2022-09-28T12:08:27.179Z,12.86
2022-09-28T12:09:18.614Z,12.84
2022-09-28T12:10:18.550Z,12.87
2022-09-28T12:11:18.645Z,12.86
2022-09-28T12:12:18.561Z,12.91
2022-09-28T12:13:18.577Z,12.86
2022-09-28T12:14:18.542Z,12.79
2022-09-28T12:15:18.562Z,12.88
2022-09-28T12:17:03.731Z,12.90
2022-09-28T12:17:26.198Z,12.98
2022-09-28T12:18:26.071Z,13.05
2022-09-28T12:19:26.144Z,13.17
2022-09-28T12:20:18.502Z,13.17
2022-09-28T12:21:18.510Z,13.11
2022-09-28T12:22:18.419Z,13.09
2022-09-28T12:23:18.432Z,13.17
2022-09-28T12:24:18.446Z,13.05
2022-09-28T12:25:18.441Z,13.16
2022-09-28T12:26:18.469Z,13.13
2022-09-28T12:27:18.393Z,13.21
2022-09-28T12:28:18.375Z,13.06
2022-09-28T12:29:18.510Z,13.20
2022-09-28T12:30:18.350Z,13.23
2022-09-28T12:31:18.373Z,13.14
2022-09-28T12:32:18.326Z,13.13
2022-09-28T12:33:18.317Z,13.13
2022-09-28T12:34:18.296Z,13.14
2022-09-28T12:35:18.281Z,13.16
2022-09-28T12:36:18.295Z,13.21
2022-09-28T12:37:18.294Z,13.16
2022-09-28T12:38:18.260Z,13.08
2022-09-28T12:39:27.077Z,13.20
2022-09-28T12:40:19.334Z,13.24
2022-09-28T12:41:18.218Z,13.29
2022-09-28T12:42:18.229Z,13.17
2022-09-28T12:43:18.222Z,13.14
2022-09-28T12:44:18.223Z,13.17
2022-09-28T12:45:18.185Z,13.13
2022-09-28T12:46:18.270Z,13.09
2022-09-28T12:47:18.151Z,13.17
2022-09-28T12:48:18.145Z,13.20
2022-09-28T12:50:38.492Z,13.11
2022-09-28T12:51:19.130Z,13.14
2022-09-28T12:52:18.097Z,13.13
2022-09-28T12:53:18.101Z,13.04
2022-09-28T12:54:18.189Z,12.99
2022-09-28T12:55:18.079Z,13.04
2022-09-28T12:56:20.857Z,13.13
2022-09-28T12:57:18.054Z,13.13
2022-09-28T12:58:18.056Z,13.17
2022-09-28T12:59:18.195Z,13.11
2022-09-28T13:00:18.039Z,13.08
2022-09-28T13:01:18.069Z,13.16
2022-09-28T13:02:18.118Z,13.17
2022-09-28T13:03:17.986Z,13.19
2022-09-28T13:04:17.986Z,13.13
2022-09-28T13:05:17.964Z,13.21
2022-09-28T13:06:17.951Z,13.19
2022-09-28T13:07:17.940Z,13.26
2022-09-28T13:08:17.953Z,13.21
2022-09-28T13:09:18.019Z,13.23
2022-09-28T13:10:17.931Z,13.23
2022-09-28T13:11:17.894Z,13.16
2022-09-28T13:12:17.883Z,12.98
2022-09-28T13:13:17.880Z,12.73
2022-09-28T13:14:17.877Z,12.76
2022-09-28T13:15:17.864Z,12.59
2022-09-28T13:16:18.001Z,12.88
2022-09-28T13:17:17.864Z,12.93
2022-09-28T13:18:17.826Z,12.95
2022-09-28T13:19:17.921Z,12.93
2022-09-28T13:20:17.799Z,12.96
2022-09-28T13:21:17.794Z,12.98
2022-09-28T13:22:17.782Z,12.99
2022-09-28T13:23:17.790Z,13.02
2022-09-28T13:24:31.574Z,13.06
2022-09-28T13:25:18.750Z,13.02
2022-09-28T13:26:17.754Z,12.90
2022-09-28T13:27:17.736Z,12.88
2022-09-28T13:28:17.715Z,12.96
2022-09-28T13:29:17.722Z,13.08
2022-09-28T13:30:17.698Z,13.06
2022-09-28T13:31:17.709Z,13.17
2022-09-28T13:32:17.702Z,13.09
2022-09-28T13:33:17.672Z,13.14
2022-09-28T13:34:17.664Z,13.06
2022-09-28T13:35:17.661Z,13.04
2022-09-28T13:36:17.636Z,13.06
2022-09-28T13:37:17.641Z,12.99
2022-09-28T13:38:17.608Z,13.06
2022-09-28T13:39:17.601Z,13.04
2022-09-28T13:40:17.626Z,13.17
2022-09-28T13:41:17.587Z,13.05
2022-09-28T13:42:17.597Z,12.93
2022-09-28T13:43:19.715Z,12.93
2022-09-28T13:44:17.684Z,12.98
2022-09-28T13:45:17.571Z,12.87
2022-09-28T13:46:17.614Z,12.84
2022-09-28T13:47:20.730Z,12.83
2022-09-28T13:48:17.543Z,12.84
2022-09-28T13:49:17.498Z,12.81
2022-09-28T13:50:17.504Z,12.88
2022-09-28T13:51:17.487Z,12.77
2022-09-28T13:52:17.469Z,12.81
2022-09-28T13:53:17.461Z,12.76
2022-09-28T13:54:17.466Z,12.79
2022-09-28T13:55:17.442Z,12.72
2022-09-28T13:56:17.430Z,12.59
2022-09-28T13:57:17.423Z,12.68
2022-09-28T13:58:17.409Z,12.72
2022-09-28T13:59:17.406Z,12.69
2022-09-28T14:00:17.379Z,12.71
2022-09-28T14:01:17.410Z,12.55
2022-09-28T14:02:17.403Z,12.68
2022-09-28T14:03:17.354Z,12.69
2022-09-28T14:04:17.360Z,12.68
2022-09-28T14:05:17.355Z,12.71
2022-09-28T14:06:17.324Z,12.72
2022-09-28T14:07:17.363Z,12.71
2022-09-28T14:08:17.299Z,12.79
2022-09-28T14:09:17.380Z,12.72
2022-09-28T14:10:17.304Z,12.65
2022-09-28T14:11:17.280Z,12.73
2022-09-28T14:12:17.256Z,12.66
2022-09-28T14:13:17.251Z,12.63
2022-09-28T14:14:17.253Z,12.80
2022-09-28T14:15:17.253Z,12.72
2022-09-28T14:16:17.358Z,12.71
2022-09-28T14:17:17.323Z,12.81
2022-09-28T14:18:17.186Z,12.84
2022-09-28T14:19:17.369Z,12.86
2022-09-28T14:20:17.330Z,12.88
2022-09-28T14:21:17.650Z,12.91
2022-09-28T14:22:17.823Z,12.95
2022-09-28T14:23:17.320Z,12.95
2022-09-28T14:24:18.719Z,12.99
2022-09-28T14:25:24.577Z,12.93
2022-09-28T14:26:19.524Z,12.91
2022-09-28T14:27:17.170Z,12.98
2022-09-28T14:28:17.130Z,12.93
2022-09-28T14:29:17.109Z,12.81
2022-09-28T14:30:17.131Z,12.86
2022-09-28T14:31:17.108Z,12.84
2022-09-28T14:32:17.044Z,12.95
2022-09-28T14:33:17.048Z,12.93
2022-09-28T14:34:17.014Z,12.88
2022-09-28T14:35:18.772Z,12.79
2022-09-28T14:36:17.029Z,12.77
2022-09-28T14:37:16.993Z,12.80
2022-09-28T14:38:16.996Z,12.77
2022-09-28T14:39:17.002Z,12.88
2022-09-28T14:40:17.001Z,12.80
2022-09-28T14:41:16.990Z,12.80
2022-09-28T14:42:16.937Z,12.55
2022-09-28T14:43:17.289Z,12.54
2022-09-28T14:44:18.113Z,12.62
2022-09-28T14:45:17.664Z,12.65
2022-09-28T14:46:19.352Z,12.53
2022-09-28T14:47:17.280Z,12.38
2022-09-28T14:48:17.252Z,12.43
2022-09-28T14:49:17.785Z,12.38
2022-09-28T14:50:17.151Z,12.32
2022-09-28T14:51:16.844Z,12.35
2022-09-28T14:52:16.852Z,12.35
2022-09-28T14:53:16.812Z,12.44
2022-09-28T14:54:16.809Z,12.36
2022-09-28T14:55:16.798Z,12.44
2022-09-28T14:56:16.784Z,12.33
2022-09-28T14:57:16.778Z,12.43
2022-09-28T14:58:16.826Z,12.41
2022-09-28T14:59:16.752Z,12.36
2022-09-28T15:00:16.742Z,12.25
2022-09-28T15:01:19.519Z,12.25
2022-09-28T15:02:16.978Z,12.25
2022-09-28T15:03:16.889Z,12.18
2022-09-28T15:04:18.042Z,12.23
2022-09-28T15:05:17.107Z,12.21
2022-09-28T15:06:18.096Z,12.18
2022-09-28T15:07:16.687Z,12.15
2022-09-28T15:08:16.683Z,12.13
2022-09-28T15:09:16.659Z,12.08
2022-09-28T15:10:16.645Z,12.04
2022-09-28T15:11:16.615Z,12.00
2022-09-28T15:12:16.632Z,11.99
2022-09-28T15:13:16.653Z,11.97
2022-09-28T15:14:16.591Z,12.00
2022-09-28T15:15:16.613Z,12.04
2022-09-28T15:16:16.694Z,12.11
2022-09-28T15:17:16.568Z,12.08
2022-09-28T15:18:16.561Z,12.08
2022-09-28T15:19:16.536Z,12.08
2022-09-28T15:20:16.528Z,11.95
2022-09-28T15:21:16.543Z,11.97
2022-09-28T15:22:16.522Z,11.91
2022-09-28T15:23:16.533Z,11.84
2022-09-28T15:24:16.575Z,11.71
2022-09-28T15:25:16.488Z,11.70
2022-09-28T15:26:16.486Z,11.71
2022-09-28T15:27:16.452Z,11.59
2022-09-28T15:28:16.454Z,11.62
2022-09-28T15:29:16.454Z,11.67
2022-09-28T15:30:16.430Z,11.67
2022-09-28T15:31:16.495Z,11.59
2022-09-28T15:32:16.555Z,11.62
2022-09-28T15:33:16.431Z,11.46
2022-09-28T15:34:16.456Z,11.46
2022-09-28T15:35:16.378Z,11.41
2022-09-28T15:36:16.364Z,11.45
2022-09-28T15:37:16.352Z,11.43
2022-09-28T15:38:16.374Z,11.31
2022-09-28T15:39:16.343Z,11.23
2022-09-28T15:40:16.528Z,11.18
2022-09-28T15:41:16.315Z,11.25
2022-09-28T15:42:16.305Z,11.27
2022-09-28T15:43:16.318Z,11.19
2022-09-28T15:44:16.356Z,11.20
2022-09-28T15:45:16.277Z,11.18
2022-09-28T15:46:16.347Z,11.13
2022-09-28T15:47:16.261Z,11.18
2022-09-28T15:48:16.240Z,11.09
2022-09-28T15:49:16.227Z,11.00
2022-09-28T15:50:16.224Z,11.15
2022-09-28T15:51:16.200Z,11.01
2022-09-28T15:52:16.205Z,11.04
2022-09-28T15:53:16.196Z,10.87
2022-09-28T15:54:16.219Z,11.00
2022-09-28T15:55:16.165Z,10.86
2022-09-28T15:56:16.167Z,10.86
2022-09-28T15:57:16.138Z,10.94
2022-09-28T15:58:16.124Z,10.98
2022-09-28T15:59:16.125Z,10.98
2022-09-28T16:00:16.103Z,10.93
2022-09-28T16:01:16.167Z,10.80
2022-09-28T16:02:16.132Z,10.80
2022-09-28T16:03:16.071Z,10.94
2022-09-28T16:04:16.129Z,10.97
2022-09-28T16:05:16.054Z,10.86
2022-09-28T16:06:16.039Z,10.93
2022-09-28T16:07:16.044Z,10.86
2022-09-28T16:08:16.028Z,10.85
2022-09-28T16:09:16.161Z,10.72
2022-09-28T16:10:16.006Z,10.73
2022-09-28T16:11:15.990Z,10.78
2022-09-28T16:12:16.019Z,10.68
2022-09-28T16:13:15.988Z,10.62
2022-09-28T16:14:15.968Z,10.62
2022-09-28T16:15:15.956Z,10.67
2022-09-28T16:16:16.041Z,10.65
2022-09-28T16:17:15.934Z,10.65
2022-09-28T16:18:15.936Z,10.70
2022-09-28T16:19:15.965Z,10.68
2022-09-28T16:20:15.921Z,10.65
2022-09-28T16:21:15.889Z,10.57
2022-09-28T16:22:15.879Z,10.52
2022-09-28T16:23:15.874Z,10.55
2022-09-28T16:24:15.863Z,10.45
2022-09-28T16:25:15.870Z,10.57
2022-09-28T16:26:15.842Z,10.45
2022-09-28T16:27:15.819Z,10.36
2022-09-28T16:28:15.831Z,10.41
2022-09-28T16:29:15.901Z,10.38
2022-09-28T16:30:15.799Z,10.36
2022-09-28T16:31:15.839Z,10.41
2022-09-28T16:32:15.802Z,10.45
2022-09-28T16:33:15.752Z,10.48
2022-09-28T16:34:24.804Z,10.54
2022-09-28T16:35:23.391Z,10.52
2022-09-28T16:36:23.351Z,10.45
2022-09-28T16:37:24.394Z,10.45
2022-09-28T16:38:23.360Z,10.42
2022-09-28T16:39:15.733Z,10.41
2022-09-28T16:40:15.745Z,10.42
2022-09-28T16:41:15.698Z,10.43
2022-09-28T16:42:15.725Z,10.43
2022-09-28T16:43:15.663Z,10.46
2022-09-28T16:44:15.669Z,10.43
2022-09-28T16:45:15.656Z,10.36
2022-09-28T16:46:15.692Z,10.41
2022-09-28T16:47:15.608Z,10.41
2022-09-28T16:48:17.495Z,10.41
2022-09-28T16:49:15.618Z,10.39
2022-09-28T16:50:15.588Z,10.39
2022-09-28T16:51:15.605Z,10.38
2022-09-28T16:52:15.555Z,10.42
2022-09-28T16:53:15.541Z,10.36
2022-09-28T16:54:15.559Z,10.36
2022-09-28T16:55:39.004Z,10.28
2022-09-28T16:56:16.518Z,10.20
2022-09-28T16:57:15.499Z,10.35
2022-09-28T16:58:15.500Z,10.36
2022-09-28T16:59:15.548Z,10.30
2022-09-28T17:00:15.526Z,10.28
2022-09-28T17:01:15.506Z,10.30
2022-09-28T17:02:35.335Z,10.27
2022-09-28T17:03:16.502Z,10.17
2022-09-28T17:04:15.435Z,10.21
2022-09-28T17:05:15.413Z,10.27
2022-09-28T17:06:15.423Z,10.30
2022-09-28T17:07:15.402Z,10.14
2022-09-28T17:08:15.389Z,10.12
2022-09-28T17:09:15.395Z,10.16
2022-09-28T17:10:15.381Z,10.21
2022-09-28T17:11:20.210Z,10.10
2022-09-28T17:12:16.357Z,10.14
2022-09-28T17:13:15.334Z,10.21
2022-09-28T17:14:15.329Z,10.26
2022-09-28T17:15:15.311Z,10.27
2022-09-28T17:16:15.774Z,10.27
2022-09-28T17:17:17.189Z,10.35
2022-09-28T17:18:15.295Z,10.27
2022-09-28T17:19:15.271Z,10.27
2022-09-28T17:20:15.262Z,10.24
2022-09-28T17:21:15.247Z,10.24
2022-09-28T17:22:15.248Z,10.26
2022-09-28T17:23:15.246Z,10.17
2022-09-28T17:24:15.305Z,10.17
2022-09-28T17:25:15.211Z,10.10
2022-09-28T17:26:15.212Z,10.18
2022-09-28T17:27:15.188Z,10.10
2022-09-28T17:28:15.196Z,10.14
2022-09-28T17:29:15.161Z,10.17
2022-09-28T17:30:15.174Z,10.18
2022-09-28T17:31:15.246Z,10.08
2022-09-28T17:32:15.157Z,10.16
2022-09-28T17:33:15.122Z,10.14
2022-09-28T17:34:15.135Z,10.14
2022-09-28T17:35:25.262Z,10.24
2022-09-28T17:36:16.110Z,10.24
2022-09-28T17:37:15.092Z,10.17
2022-09-28T17:38:15.077Z,10.28
2022-09-28T17:39:15.088Z,10.23
2022-09-28T17:40:15.045Z,10.10
2022-09-28T17:41:20.056Z,10.14
2022-09-28T17:42:16.058Z,10.14
2022-09-28T17:43:15.031Z,10.18
2022-09-28T17:44:15.094Z,10.23
2022-09-28T17:45:14.998Z,10.18
2022-09-28T17:46:15.022Z,10.26
2022-09-28T17:47:14.984Z,10.24
2022-09-28T17:48:14.988Z,10.26
2022-09-28T17:49:14.990Z,10.24
2022-09-28T17:50:14.944Z,10.28
2022-09-28T17:51:14.948Z,10.18
2022-09-28T17:52:14.927Z,10.23
2022-09-28T17:53:14.913Z,10.23
2022-09-28T17:54:14.922Z,10.26
2022-09-28T17:55:14.900Z,10.16
2022-09-28T17:56:14.892Z,10.20
2022-09-28T17:57:14.876Z,10.30
2022-09-28T17:58:14.869Z,10.30
2022-09-28T17:59:14.849Z,10.24
2022-09-28T18:00:14.872Z,10.34
2022-09-28T18:01:14.905Z,10.26
2022-09-28T18:02:14.820Z,10.24
2022-09-28T18:03:14.819Z,10.24
2022-09-28T18:04:33.388Z,10.21
2022-09-28T18:05:15.789Z,10.21
2022-09-28T18:06:14.803Z,10.28
2022-09-28T18:07:14.795Z,10.31
2022-09-28T18:08:14.758Z,10.23
2022-09-28T18:09:14.752Z,10.26
2022-09-28T18:10:14.734Z,10.31
2022-09-28T18:11:14.759Z,10.28
2022-09-28T18:12:14.720Z,10.26
2022-09-28T18:13:14.725Z,10.34
2022-09-28T18:14:14.701Z,10.30
2022-09-28T18:15:14.689Z,10.26
2022-09-28T18:16:14.815Z,10.26
2022-09-28T18:17:14.686Z,10.26
2022-09-28T18:18:14.664Z,10.30
2022-09-28T18:19:14.668Z,10.35
2022-09-28T18:20:14.651Z,10.30
2022-09-28T18:21:14.632Z,10.27
2022-09-28T18:22:14.610Z,10.41
2022-09-28T18:23:14.641Z,10.38
2022-09-28T18:24:14.633Z,10.41
2022-09-28T18:25:14.599Z,10.35
2022-09-28T18:26:14.572Z,10.31
2022-09-28T18:27:14.560Z,10.27
2022-09-28T18:28:14.565Z,10.34
2022-09-28T18:29:14.553Z,10.36
2022-09-28T18:30:14.531Z,10.31
2022-09-28T18:31:14.596Z,10.30
2022-09-28T18:32:14.516Z,10.28
2022-09-28T18:33:14.505Z,10.34
2022-09-28T18:34:14.561Z,10.31
2022-09-28T18:35:14.481Z,10.23
2022-09-28T18:36:14.486Z,10.27
2022-09-28T18:37:14.469Z,10.31
2022-09-28T18:38:14.455Z,10.23
2022-09-28T18:39:14.445Z,10.17
2022-09-28T18:40:14.427Z,10.17
2022-09-28T18:41:14.414Z,10.16
2022-09-28T18:42:14.406Z,10.16
2022-09-28T18:43:14.405Z,10.17
2022-09-28T18:44:23.359Z,10.10
2022-09-28T18:45:14.463Z,10.21
2022-09-28T18:46:22.078Z,10.16
2022-09-28T18:47:22.028Z,10.17
2022-09-28T18:48:14.468Z,10.16
2022-09-28T18:49:14.414Z,10.09
2022-09-28T18:50:14.417Z,10.16
2022-09-28T18:51:14.406Z,10.14
2022-09-28T18:52:14.317Z,10.09
2022-09-28T18:53:14.283Z,10.02
2022-09-28T18:54:14.293Z,10.06
2022-09-28T18:55:14.284Z,9.98
2022-09-28T18:56:14.271Z,10.03
2022-09-28T18:57:14.243Z,10.02
2022-09-28T18:58:14.243Z,10.02
2022-09-28T18:59:14.502Z,9.93
2022-09-28T19:00:14.217Z,9.91
2022-09-28T19:01:29.521Z,9.96
2022-09-28T19:02:15.311Z,9.91
2022-09-28T19:03:14.475Z,9.90
2022-09-28T19:04:14.190Z,9.90
2022-09-28T19:05:14.200Z,9.91
2022-09-28T19:06:14.153Z,9.96
2022-09-28T19:07:14.155Z,9.85
2022-09-28T19:08:14.162Z,9.88
2022-09-28T19:09:14.126Z,9.93
2022-09-28T19:10:14.105Z,9.91
2022-09-28T19:11:14.121Z,9.94
2022-09-28T19:12:14.097Z,9.93
2022-09-28T19:13:14.083Z,9.85
2022-09-28T19:14:14.074Z,9.90
2022-09-28T19:15:14.058Z,9.91
2022-09-28T19:16:14.100Z,9.91
2022-09-28T19:17:14.061Z,9.78
2022-09-28T19:18:14.067Z,9.78
2022-09-28T19:19:14.037Z,9.80
2022-09-28T19:20:14.002Z,9.83
2022-09-28T19:21:14.006Z,9.80
2022-09-28T19:22:13.980Z,9.80
2022-09-28T19:23:13.993Z,9.78
2022-09-28T19:24:14.004Z,9.78
2022-09-28T19:25:14.020Z,9.83
2022-09-28T19:26:13.937Z,9.77
2022-09-28T19:27:13.959Z,9.73
2022-09-28T19:28:13.926Z,9.72
2022-09-28T19:29:13.939Z,9.72
2022-09-28T19:30:13.909Z,9.67
2022-09-28T19:31:13.910Z,9.65
2022-09-28T19:32:13.873Z,9.67
2022-09-28T19:33:13.863Z,9.69
2022-09-28T19:34:14.445Z,9.70
2022-09-28T19:35:13.859Z,9.65
2022-09-28T19:36:13.865Z,9.65
2022-09-28T19:37:13.849Z,9.63
2022-09-28T19:38:13.817Z,9.63
2022-09-28T19:39:13.822Z,9.54
2022-09-28T19:40:13.827Z,9.62
2022-09-28T19:41:13.783Z,9.59
2022-09-28T19:42:13.785Z,9.54
2022-09-28T19:43:13.770Z,9.57
2022-09-28T19:44:13.812Z,9.60
2022-09-28T19:45:13.753Z,9.55
2022-09-28T19:46:13.786Z,9.45
2022-09-28T19:47:13.723Z,9.57